Time;durP1;ratioP1;P1;durP2;ratioP2;P2;SDS_P1;SDS_P2;PMS_P1;PMS_P2;Temp;Humidity;BMP_temperature;BMP_pressure;BME280_temperature;BME280_humidity;BME280_pressure;Samples;Min_cycle;Max_cycle;Signal;HPM_P1;HPM_P2
2021/12/29 00:02:03;;;;;;;46.63;30.52;;;3.20;1.00;;;;;;5083097;28;20244;-78
2021/12/29 00:04:31;;;;;;;51.17;33.20;;;3.10;1.00;;;;;;5074281;28;20271;-77
2021/12/29 00:06:58;;;;;;;47.75;30.75;;;3.10;1.00;;;;;;5075985;28;20212;-79
2021/12/29 00:09:27;;;;;;;53.47;30.85;;;3.10;1.00;;;;;;5068272;28;20220;-79
2021/12/29 00:11:54;;;;;;;48.25;32.70;;;3.10;1.00;;;;;;5072786;28;20680;-79
2021/12/29 00:14:20;;;;;;;53.13;33.40;;;3.10;1.00;;;;;;5073454;28;20240;-78
2021/12/29 00:16:47;;;;;;;48.08;29.63;;;3.00;1.00;;;;;;5080258;28;20205;-76
2021/12/29 00:19:14;;;;;;;45.47;31.15;;;3.10;1.00;;;;;;5089913;28;20224;-76
2021/12/29 00:21:41;;;;;;;49.53;31.85;;;3.10;1.00;;;;;;5082769;28;20373;-78
2021/12/29 00:24:08;;;;;;;49.75;32.50;;;3.20;1.00;;;;;;5069890;28;20236;-78
2021/12/29 00:26:36;;;;;;;45.53;30.20;;;3.20;1.00;;;;;;5066936;28;20679;-77
2021/12/29 00:29:03;;;;;;;46.90;31.30;;;3.20;1.00;;;;;;5068955;28;20225;-78
2021/12/29 00:31:32;;;;;;;42.95;28.48;;;3.20;1.00;;;;;;5070128;28;20288;-78
2021/12/29 00:33:59;;;;;;;43.15;29.67;;;3.10;1.00;;;;;;5069773;28;20239;-81
2021/12/29 00:36:28;;;;;;;42.92;27.98;;;3.10;1.00;;;;;;5064590;28;20228;-78
2021/12/29 00:38:55;;;;;;;43.63;30.20;;;3.10;1.00;;;;;;5067268;28;20288;-80
2021/12/29 00:41:22;;;;;;;45.78;30.05;;;3.10;1.00;;;;;;5063544;28;20225;-80
2021/12/29 00:43:51;;;;;;;48.30;29.40;;;3.10;1.00;;;;;;5068791;28;20221;-78
2021/12/29 00:46:18;;;;;;;40.83;30.10;;;3.20;1.00;;;;;;5070244;28;20299;-79
2021/12/29 00:48:47;;;;;;;46.92;29.33;;;3.20;1.00;;;;;;5067067;28;20610;-80
2021/12/29 00:51:14;;;;;;;57.60;33.83;;;3.30;1.00;;;;;;5086103;28;20296;-77
2021/12/29 00:53:42;;;;;;;46.20;29.67;;;3.30;1.00;;;;;;5079601;28;20275;-78
2021/12/29 00:56:09;;;;;;;44.20;29.30;;;3.30;1.00;;;;;;5078514;28;20292;-78
2021/12/29 00:58:36;;;;;;;42.45;28.05;;;3.30;1.00;;;;;;5074146;28;20230;-79
2021/12/29 01:01:05;;;;;;;50.63;31.98;;;3.40;1.00;;;;;;5069483;28;20236;-80
2021/12/29 01:03:33;;;;;;;47.60;30.45;;;3.40;1.00;;;;;;5067398;28;20220;-77
2021/12/29 01:06:00;;;;;;;45.00;29.33;;;3.50;1.00;;;;;;5066818;28;20259;-79
2021/12/29 01:08:26;;;;;;;45.05;29.95;;;3.50;1.00;;;;;;5070057;28;20243;-80
2021/12/29 01:10:53;;;;;;;37.90;25.75;;;3.50;1.00;;;;;;5066694;28;21044;-77
2021/12/29 01:13:29;;;;;;;38.70;27.50;;;3.50;1.00;;;;;;5072882;28;20252;-77
2021/12/29 01:16:08;;;;;;;39.00;28.70;;;3.60;1.00;;;;;;5067814;28;20226;-78
2021/12/29 01:18:39;;;;;;;46.10;28.10;;;3.60;1.00;;;;;;5071899;28;20231;-79
2021/12/29 01:21:06;;;;;;;39.08;26.90;;;3.50;1.00;;;;;;5066449;28;20900;-78
2021/12/29 01:23:33;;;;;;;39.97;28.63;;;3.50;1.00;;;;;;5063299;28;20229;-79
2021/12/29 01:26:01;;;;;;;39.67;27.02;;;3.40;1.00;;;;;;5068169;28;20234;-81
2021/12/29 01:28:28;;;;;;;37.33;26.60;;;3.30;1.00;;;;;;5070898;28;20221;-79
2021/12/29 01:30:55;;;;;;;36.42;26.20;;;3.40;1.00;;;;;;5070078;28;20366;-80
2021/12/29 01:33:22;;;;;;;38.83;27.70;;;3.30;1.00;;;;;;5067628;28;20296;-78
2021/12/29 01:35:50;;;;;;;37.13;27.10;;;3.40;1.00;;;;;;5086708;28;20213;-76
2021/12/29 01:38:17;;;;;;;48.22;29.77;;;3.40;1.00;;;;;;5088133;28;20213;-76
2021/12/29 01:40:48;;;;;;;38.28;28.38;;;3.40;1.00;;;;;;5092034;28;20220;-76
2021/12/29 01:43:15;;;;;;;36.80;25.63;;;3.40;1.00;;;;;;5089609;28;20209;-76
2021/12/29 01:45:42;;;;;;;44.08;27.63;;;3.40;1.00;;;;;;5089114;28;20205;-78
2021/12/29 01:48:10;;;;;;;40.13;28.13;;;3.30;1.00;;;;;;5075070;28;20231;-78
2021/12/29 01:50:38;;;;;;;44.28;28.88;;;3.30;1.00;;;;;;5066697;28;20325;-80
2021/12/29 01:53:09;;;;;;;39.60;26.10;;;3.30;1.00;;;;;;5070696;28;20233;-79
2021/12/29 01:55:36;;;;;;;36.28;25.58;;;3.30;1.00;;;;;;5067142;28;20228;-77
2021/12/29 01:58:04;;;;;;;38.45;27.17;;;3.40;1.00;;;;;;5073887;28;20328;-81
2021/12/29 02:00:33;;;;;;;37.95;26.40;;;3.40;1.00;;;;;;5064326;28;21055;-78
2021/12/29 02:03:00;;;;;;;37.28;25.08;;;3.40;1.00;;;;;;5071249;28;20220;-79
2021/12/29 02:05:27;;;;;;;39.30;26.17;;;3.50;1.00;;;;;;5074550;28;20241;-76
2021/12/29 02:07:54;;;;;;;39.33;26.05;;;3.50;1.00;;;;;;5083957;28;20274;-79
2021/12/29 02:10:24;;;;;;;38.33;26.40;;;3.50;1.00;;;;;;5080935;28;20235;-77
2021/12/29 02:12:51;;;;;;;38.80;25.58;;;3.50;1.00;;;;;;5066347;28;20227;-79
2021/12/29 02:15:18;;;;;;;38.35;26.40;;;3.50;1.00;;;;;;5066370;28;20235;-78
2021/12/29 02:17:45;;;;;;;36.38;25.70;;;3.60;1.00;;;;;;5068683;28;20222;-78
2021/12/29 02:20:14;;;;;;;40.90;26.77;;;3.60;1.00;;;;;;5066611;28;20906;-79
2021/12/29 02:22:45;;;;;;;39.75;26.67;;;3.60;1.00;;;;;;5068663;28;20221;-79
2021/12/29 02:25:32;;;;;;;37.00;25.83;;;3.60;1.00;;;;;;5061998;28;20229;-77
2021/12/29 02:28:02;;;;;;;40.70;27.67;;;3.70;1.00;;;;;;5069698;28;20232;-81
2021/12/29 02:30:28;;;;;;;38.42;25.52;;;3.60;1.00;;;;;;5066735;28;20232;-79
2021/12/29 02:32:57;;;;;;;41.53;25.63;;;3.60;1.00;;;;;;5070425;28;21277;-80
2021/12/29 02:35:26;;;;;;;38.00;24.52;;;3.60;1.00;;;;;;5065357;28;20217;-78
2021/12/29 02:37:53;;;;;;;37.17;25.20;;;3.70;1.00;;;;;;5067304;28;20221;-81
2021/12/29 02:40:20;;;;;;;33.90;23.38;;;3.80;1.00;;;;;;5063640;28;22044;-79
2021/12/29 02:42:48;;;;;;;37.95;26.38;;;3.80;1.00;;;;;;5086602;28;20229;-79
2021/12/29 02:45:21;;;;;;;40.25;27.67;;;3.90;1.00;;;;;;5070741;28;20237;-80
2021/12/29 02:47:48;;;;;;;39.30;27.65;;;3.80;1.00;;;;;;5070161;28;20232;-79
2021/12/29 02:50:15;;;;;;;36.05;26.00;;;3.80;1.00;;;;;;5078514;28;20229;-78
2021/12/29 02:52:44;;;;;;;32.08;24.65;;;3.80;1.00;;;;;;5069117;28;21078;-80
2021/12/29 02:55:12;;;;;;;36.22;25.30;;;3.90;1.00;;;;;;5067797;28;20304;-81
2021/12/29 02:57:39;;;;;;;38.08;25.00;;;3.90;1.00;;;;;;5068187;28;20324;-79
2021/12/29 03:00:08;;;;;;;39.25;23.88;;;3.90;1.00;;;;;;5066843;28;20316;-79
2021/12/29 03:02:34;;;;;;;36.95;24.85;;;3.90;1.00;;;;;;5064149;28;20229;-81
2021/12/29 03:05:01;;;;;;;35.38;24.05;;;3.90;1.00;;;;;;5065579;28;20235;-80
2021/12/29 03:07:28;;;;;;;37.85;27.00;;;3.90;1.00;;;;;;5064643;28;20228;-77
2021/12/29 03:09:56;;;;;;;33.80;25.00;;;3.90;1.00;;;;;;5070797;28;20952;-79
2021/12/29 03:12:23;;;;;;;29.40;23.42;;;4.00;1.00;;;;;;5066636;28;20263;-78
2021/12/29 03:14:54;;;;;;;40.33;24.75;;;4.00;1.00;;;;;;5071300;28;20234;-79
2021/12/29 03:17:21;;;;;;;32.17;24.25;;;4.00;1.00;;;;;;5072464;28;20224;-80
2021/12/29 03:19:48;;;;;;;36.67;24.50;;;4.00;1.00;;;;;;5073878;28;20278;-78
2021/12/29 03:22:15;;;;;;;35.53;24.85;;;3.90;1.00;;;;;;5075562;28;20304;-81
2021/12/29 03:24:47;;;;;;;34.53;24.25;;;3.90;1.00;;;;;;5084496;28;20256;-78
2021/12/29 03:27:25;;;;;;;28.83;22.85;;;3.80;1.00;;;;;;5092185;28;21212;-81
2021/12/29 03:29:52;;;;;;;35.28;24.65;;;3.70;1.00;;;;;;5084863;28;20223;-79
2021/12/29 03:32:35;;;;;;;33.63;23.00;;;3.60;1.00;;;;;;5070389;28;20225;-79
2021/12/29 03:35:02;;;;;;;30.65;22.77;;;3.70;1.00;;;;;;5078441;28;20243;-80
2021/12/29 03:37:29;;;;;;;35.05;23.13;;;3.70;1.00;;;;;;5075751;28;21155;-77
2021/12/29 03:39:55;;;;;;;32.28;23.88;;;3.70;1.00;;;;;;5088122;28;20225;-77
2021/12/29 03:42:22;;;;;;;29.70;23.05;;;3.70;1.00;;;;;;5073900;28;20243;-81
2021/12/29 03:44:50;;;;;;;34.13;22.95;;;3.80;1.00;;;;;;5071405;28;20222;-79
2021/12/29 03:47:17;;;;;;;30.00;22.77;;;3.80;1.00;;;;;;5072724;28;20431;-79
2021/12/29 03:49:44;;;;;;;30.83;22.60;;;3.80;1.00;;;;;;5072795;28;21220;-78
2021/12/29 03:52:11;;;;;;;29.40;21.33;;;3.80;1.00;;;;;;5074201;28;20236;-78
2021/12/29 03:54:37;;;;;;;32.03;24.30;;;3.80;1.00;;;;;;5078182;28;20236;-79
2021/12/29 03:57:04;;;;;;;36.72;25.08;;;3.80;1.00;;;;;;5083996;28;20243;-77
2021/12/29 03:59:32;;;;;;;31.25;22.27;;;3.70;1.00;;;;;;5080683;28;20225;-77
2021/12/29 04:02:00;;;;;;;30.85;22.90;;;3.80;1.00;;;;;;5087152;28;20225;-76
2021/12/29 04:04:27;;;;;;;30.50;23.70;;;3.90;1.00;;;;;;5081285;28;20731;-79
2021/12/29 04:06:54;;;;;;;35.58;25.23;;;3.80;1.00;;;;;;5079412;28;20217;-77
2021/12/29 04:09:21;;;;;;;35.70;24.20;;;3.70;1.00;;;;;;5069982;28;20232;-80
2021/12/29 04:11:50;;;;;;;34.97;24.15;;;3.70;1.00;;;;;;5069942;28;20244;-79
2021/12/29 04:14:17;;;;;;;34.00;23.58;;;3.50;1.00;;;;;;5074551;28;20229;-79
2021/12/29 04:16:47;;;;;;;33.40;24.00;;;3.50;1.00;;;;;;5071377;28;20265;-77
2021/12/29 04:19:29;;;;;;;33.47;23.88;;;3.50;1.00;;;;;;5076392;28;20224;-81
2021/12/29 04:21:57;;;;;;;33.00;24.80;;;3.60;1.00;;;;;;5070909;28;20225;-80
2021/12/29 04:24:24;;;;;;;29.15;22.60;;;3.60;1.00;;;;;;5079696;28;20557;-79
2021/12/29 04:26:51;;;;;;;29.48;22.30;;;3.60;1.00;;;;;;5078691;28;20227;-77
2021/12/29 04:29:18;;;;;;;31.40;22.75;;;3.60;1.00;;;;;;5086242;28;20209;-77
2021/12/29 04:31:45;;;;;;;34.45;24.60;;;3.80;1.00;;;;;;5086378;28;20380;-77
2021/12/29 04:34:12;;;;;;;31.73;24.80;;;3.80;1.00;;;;;;5079232;28;20217;-79
2021/12/29 04:36:40;;;;;;;33.63;23.83;;;3.70;1.00;;;;;;5077351;28;20263;-77
2021/12/29 04:39:07;;;;;;;34.53;24.42;;;3.70;1.00;;;;;;5078473;28;20880;-77
2021/12/29 04:41:34;;;;;;;34.10;23.55;;;3.70;1.00;;;;;;5075686;28;20384;-79
2021/12/29 04:44:01;;;;;;;33.35;23.80;;;3.80;1.00;;;;;;5070669;28;20225;-77
2021/12/29 04:46:36;;;;;;;30.27;22.50;;;3.80;1.00;;;;;;5075162;28;20315;-78
2021/12/29 04:49:04;;;;;;;32.97;23.88;;;3.90;1.00;;;;;;5064115;28;20685;-79
2021/12/29 04:51:35;;;;;;;35.63;22.17;;;4.00;1.00;;;;;;5064008;28;20407;-81
2021/12/29 04:54:05;;;;;;;33.15;22.52;;;4.10;1.00;;;;;;5067455;28;20241;-78
2021/12/29 04:56:32;;;;;;;28.58;22.58;;;4.10;1.00;;;;;;5071997;28;20252;-78
2021/12/29 04:58:59;;;;;;;27.58;21.75;;;4.10;1.00;;;;;;5082393;28;20224;-77
2021/12/29 05:01:26;;;;;;;32.65;23.55;;;4.10;1.00;;;;;;5081151;28;20244;-78
2021/12/29 05:03:54;;;;;;;31.00;23.00;;;4.00;1.00;;;;;;5070880;28;20225;-79
2021/12/29 05:09:06;;;;;;;26.27;20.92;;;4.00;1.00;;;;;;5074503;28;20223;-78
2021/12/29 05:11:33;;;;;;;24.73;20.02;;;4.00;1.00;;;;;;5070171;28;20268;-79
2021/12/29 05:14:00;;;;;;;25.98;20.17;;;4.00;1.00;;;;;;5071504;28;20304;-78
2021/12/29 05:16:28;;;;;;;26.98;21.33;;;4.10;1.00;;;;;;5073482;28;20264;-79
2021/12/29 05:18:56;;;;;;;26.63;18.48;;;4.10;1.00;;;;;;5072510;28;20244;-77
2021/12/29 05:21:25;;;;;;;27.08;19.67;;;4.20;1.00;;;;;;5074290;28;20273;-80
2021/12/29 05:23:52;;;;;;;24.95;19.88;;;4.30;1.00;;;;;;5068383;28;21040;-78
2021/12/29 05:26:20;;;;;;;29.00;20.33;;;4.40;1.00;;;;;;5069802;28;20225;-78
2021/12/29 05:28:46;;;;;;;20.40;17.08;;;4.50;1.00;;;;;;5070164;28;20233;-78
2021/12/29 05:31:13;;;;;;;20.73;16.65;;;4.50;1.00;;;;;;5073659;28;20273;-78
2021/12/29 05:33:40;;;;;;;28.52;18.05;;;4.60;1.00;;;;;;5068714;28;20288;-79
2021/12/29 05:36:07;;;;;;;25.45;18.90;;;4.60;1.00;;;;;;5066419;28;21008;-78
2021/12/29 05:38:33;;;;;;;25.95;19.58;;;4.60;1.00;;;;;;5065444;28;20281;-81
2021/12/29 05:41:00;;;;;;;28.80;19.80;;;4.60;1.00;;;;;;5075326;28;20220;-77
2021/12/29 05:43:28;;;;;;;23.38;18.58;;;4.70;1.00;;;;;;5080512;28;20209;-77
2021/12/29 05:45:56;;;;;;;26.98;18.70;;;4.60;1.00;;;;;;5075310;28;20863;-79
2021/12/29 05:48:23;;;;;;;25.90;19.10;;;4.70;1.00;;;;;;5077720;28;20236;-78
2021/12/29 05:50:50;;;;;;;23.58;18.52;;;4.70;1.00;;;;;;5082517;28;20269;-77
2021/12/29 05:53:16;;;;;;;27.08;20.88;;;4.80;1.00;;;;;;5082508;28;20246;-77
2021/12/29 05:55:43;;;;;;;25.83;19.73;;;4.80;1.00;;;;;;5080745;28;20302;-78
2021/12/29 05:58:10;;;;;;;23.05;17.50;;;4.70;1.00;;;;;;5078907;28;20268;-78
2021/12/29 06:00:39;;;;;;;22.50;17.70;;;4.70;1.00;;;;;;5077385;28;20231;-78
2021/12/29 06:03:06;;;;;;;25.05;16.70;;;4.80;1.00;;;;;;5079391;28;20224;-80
2021/12/29 06:05:33;;;;;;;22.13;17.80;;;4.80;1.00;;;;;;5076582;28;20229;-80
2021/12/29 06:08:00;;;;;;;22.58;17.10;;;4.80;1.00;;;;;;5070366;28;20693;-79
2021/12/29 06:10:26;;;;;;;20.60;16.25;;;4.90;1.00;;;;;;5075330;28;20241;-78
2021/12/29 06:12:53;;;;;;;22.15;16.45;;;4.90;1.00;;;;;;5078537;28;20352;-77
2021/12/29 06:15:20;;;;;;;21.38;16.17;;;4.90;1.00;;;;;;5078760;28;20482;-78
2021/12/29 06:17:48;;;;;;;19.45;14.98;;;5.00;1.00;;;;;;5081475;28;20273;-82
2021/12/29 06:20:15;;;;;;;19.75;15.15;;;5.00;1.00;;;;;;5074338;28;20315;-76
2021/12/29 06:22:43;;;;;;;20.45;14.93;;;5.00;1.00;;;;;;5088392;28;20308;-77
2021/12/29 06:25:12;;;;;;;20.52;14.98;;;5.00;1.00;;;;;;5065727;28;21484;-79
2021/12/29 06:27:39;;;;;;;19.85;16.27;;;5.10;1.00;;;;;;5067431;28;20281;-80
2021/12/29 06:30:09;;;;;;;20.75;15.05;;;5.10;1.00;;;;;;5064413;28;20275;-78
2021/12/29 06:32:36;;;;;;;16.63;13.65;;;5.10;1.00;;;;;;5066627;28;20232;-78
2021/12/29 06:35:06;;;;;;;22.95;15.70;;;5.10;1.00;;;;;;5064147;28;20311;-77
2021/12/29 06:37:33;;;;;;;19.05;12.63;;;5.10;1.00;;;;;;5066899;28;20340;-75
2021/12/29 06:40:00;;;;;;;21.58;14.75;;;5.10;1.00;;;;;;5062397;28;20422;-79
2021/12/29 06:42:27;;;;;;;25.15;14.38;;;5.10;1.00;;;;;;5069142;28;20248;-80
2021/12/29 06:44:55;;;;;;;20.00;14.20;;;5.10;1.00;;;;;;5064859;28;20233;-80
2021/12/29 06:47:22;;;;;;;17.30;13.80;;;5.10;1.00;;;;;;5071218;28;20234;-81
2021/12/29 06:49:48;;;;;;;17.35;12.98;;;5.20;1.00;;;;;;5066808;28;20214;-78
2021/12/29 06:52:18;;;;;;;18.83;13.35;;;5.20;1.00;;;;;;5066241;28;20289;-78
2021/12/29 06:54:46;;;;;;;16.00;12.15;;;5.20;1.00;;;;;;5065251;28;20324;-80
2021/12/29 06:57:13;;;;;;;19.50;13.65;;;5.30;1.00;;;;;;5070140;28;20973;-79
2021/12/29 06:59:39;;;;;;;16.90;12.73;;;5.30;1.00;;;;;;5068527;28;20368;-79
2021/12/29 07:02:06;;;;;;;18.90;12.77;;;5.40;1.00;;;;;;5065966;28;20344;-80
2021/12/29 07:04:33;;;;;;;16.50;12.65;;;5.40;1.00;;;;;;5070161;28;20304;-77
2021/12/29 07:06:59;;;;;;;17.63;13.38;;;5.40;1.00;;;;;;5072729;28;20304;-79
2021/12/29 07:09:27;;;;;;;19.13;15.38;;;5.40;1.00;;;;;;5071271;28;20340;-79
2021/12/29 07:11:55;;;;;;;18.33;13.55;;;5.40;1.00;;;;;;5071267;28;20276;-81
2021/12/29 07:14:22;;;;;;;21.90;13.73;;;5.40;1.00;;;;;;5089359;28;20214;-77
2021/12/29 07:16:50;;;;;;;19.58;13.40;;;5.50;1.00;;;;;;5083645;28;20913;-77
2021/12/29 07:19:17;;;;;;;26.92;22.85;;;5.40;1.00;;;;;;5073095;28;20225;-79
2021/12/29 07:21:44;;;;;;;15.73;12.85;;;5.40;1.00;;;;;;5068448;28;20229;-80
2021/12/29 07:24:12;;;;;;;15.07;12.38;;;5.40;1.00;;;;;;5070049;28;20308;-80
2021/12/29 07:26:40;;;;;;;16.25;13.50;;;5.40;1.00;;;;;;5067990;28;20980;-81
2021/12/29 07:29:07;;;;;;;16.42;12.38;;;5.40;1.00;;;;;;5069387;28;20237;-78
2021/12/29 07:31:34;;;;;;;19.15;12.68;;;5.30;1.00;;;;;;5065739;28;20221;-79
2021/12/29 07:34:01;;;;;;;16.63;12.30;;;5.30;1.00;;;;;;5068674;28;20292;-80
2021/12/29 07:36:28;;;;;;;18.23;12.65;;;5.30;1.00;;;;;;5066654;28;20992;-79
2021/12/29 07:38:55;;;;;;;21.60;12.90;;;5.40;1.00;;;;;;5068958;28;20237;-78
2021/12/29 07:41:22;;;;;;;15.07;12.38;;;5.40;1.00;;;;;;5076043;28;20719;-77
2021/12/29 07:43:51;;;;;;;16.92;12.80;;;5.40;1.00;;;;;;5079989;28;20364;-78
2021/12/29 07:46:19;;;;;;;24.33;13.88;;;5.40;1.00;;;;;;5072823;28;20220;-81
2021/12/29 07:48:45;;;;;;;16.15;12.60;;;5.40;1.00;;;;;;5069803;28;20232;-77
2021/12/29 07:51:12;;;;;;;17.60;12.85;;;5.50;1.00;;;;;;5073945;28;20228;-79
2021/12/29 07:53:39;;;;;;;18.05;12.98;;;5.40;1.00;;;;;;5065907;28;20243;-79
2021/12/29 07:56:07;;;;;;;17.63;13.00;;;5.40;1.00;;;;;;5067280;28;20228;-79
2021/12/29 07:58:34;;;;;;;16.83;13.70;;;5.40;1.00;;;;;;5065354;28;20300;-79
2021/12/29 08:01:03;;;;;;;21.10;14.00;;;5.40;1.00;;;;;;5065772;28;20251;-78
2021/12/29 08:03:30;;;;;;;16.98;13.20;;;5.40;1.00;;;;;;5075623;28;20320;-78
2021/12/29 08:05:57;;;;;;;22.13;14.10;;;5.40;1.00;;;;;;5088253;28;20233;-76
2021/12/29 08:08:24;;;;;;;22.75;14.40;;;5.50;1.00;;;;;;5070646;28;20308;-86
2021/12/29 08:10:50;;;;;;;19.08;13.68;;;5.60;1.00;;;;;;5070397;28;20225;-84
2021/12/29 08:13:17;;;;;;;22.13;14.95;;;5.70;1.00;;;;;;5077697;28;20279;-84
2021/12/29 08:15:44;;;;;;;22.15;14.73;;;5.70;1.00;;;;;;5087061;28;20239;-85
2021/12/29 08:18:13;;;;;;;22.83;16.20;;;5.70;1.00;;;;;;5069941;28;20232;-85
2021/12/29 08:20:40;;;;;;;24.33;15.25;;;5.70;1.00;;;;;;5069951;28;20236;-84
2021/12/29 08:23:08;;;;;;;20.20;15.63;;;5.70;1.00;;;;;;5077973;28;20244;-84
2021/12/29 08:25:35;;;;;;;22.73;15.43;;;5.80;1.00;;;;;;5067465;28;20232;-84
2021/12/29 08:28:02;;;;;;;22.05;15.32;;;5.80;1.00;;;;;;5069006;28;20223;-84
2021/12/29 08:30:30;;;;;;;19.40;14.52;;;5.80;1.00;;;;;;5073072;28;20489;-84
2021/12/29 08:32:57;;;;;;;22.25;15.57;;;5.70;1.00;;;;;;5069364;28;20241;-84
2021/12/29 08:35:27;;;;;;;22.05;14.68;;;5.70;1.00;;;;;;5084183;28;20324;-85
2021/12/29 08:37:54;;;;;;;19.00;13.45;;;5.70;1.00;;;;;;5085739;28;20239;-84
2021/12/29 08:40:21;;;;;;;19.83;15.48;;;5.60;1.00;;;;;;5088707;28;20235;-84
2021/12/29 08:42:49;;;;;;;28.50;18.60;;;5.50;1.00;;;;;;5093727;28;20296;-85
2021/12/29 08:45:42;;;;;;;21.30;15.60;;;5.50;1.00;;;;;;5091855;28;20217;-85
2021/12/29 08:48:13;;;;;;;25.38;13.98;;;5.50;1.00;;;;;;5091661;28;20216;-85
2021/12/29 08:50:42;;;;;;;22.35;13.80;;;5.50;1.00;;;;;;5088021;28;20366;-84
2021/12/29 08:53:10;;;;;;;19.98;14.52;;;5.60;1.00;;;;;;5086719;27;20244;-85
2021/12/29 08:55:39;;;;;;;21.17;14.07;;;5.70;1.00;;;;;;5069480;28;20231;-85
2021/12/29 08:58:07;;;;;;;24.38;13.98;;;5.80;1.00;;;;;;5067791;28;20230;-83
2021/12/29 09:00:34;;;;;;;21.27;14.00;;;5.80;1.00;;;;;;5067266;28;20237;-85
2021/12/29 09:03:01;;;;;;;23.88;14.77;;;5.80;1.00;;;;;;5071656;28;20303;-85
2021/12/29 09:05:29;;;;;;;23.00;15.77;;;5.90;1.00;;;;;;5077502;28;20220;-85
2021/12/29 09:07:58;;;;;;;46.25;27.08;;;5.90;1.00;;;;;;5074369;28;20225;-85
2021/12/29 09:10:25;;;;;;;22.25;15.10;;;6.00;1.00;;;;;;5078871;28;20243;-85
2021/12/29 09:12:53;;;;;;;20.13;15.23;;;6.00;1.00;;;;;;5071862;28;20221;-85
2021/12/29 09:15:20;;;;;;;22.85;15.70;;;6.10;1.00;;;;;;5080601;28;20221;-85
2021/12/29 09:17:48;;;;;;;22.75;15.00;;;6.10;1.00;;;;;;5088554;28;20213;-85
2021/12/29 09:20:24;;;;;;;21.52;14.82;;;6.20;1.00;;;;;;5080441;28;21157;-84
2021/12/29 09:22:51;;;;;;;24.00;15.25;;;6.30;1.00;;;;;;5079045;28;20431;-84
2021/12/29 09:25:20;;;;;;;22.20;15.43;;;6.30;1.00;;;;;;5080020;28;20222;-86
2021/12/29 09:27:49;;;;;;;20.10;13.30;;;6.30;1.00;;;;;;5077757;28;20250;-85
2021/12/29 09:30:18;;;;;;;20.70;14.68;;;6.30;1.00;;;;;;5070813;28;20439;-85
2021/12/29 09:32:45;;;;;;;20.92;13.57;;;6.30;1.00;;;;;;5073490;28;20225;-86
2021/12/29 09:35:12;;;;;;;21.92;14.68;;;6.40;1.00;;;;;;5069250;28;20237;-83
2021/12/29 09:37:40;;;;;;;17.73;14.52;;;6.40;1.00;;;;;;5070036;28;20279;-86
2021/12/29 09:40:08;;;;;;;23.38;14.10;;;6.40;1.00;;;;;;5069321;28;20233;-85
2021/12/29 09:42:37;;;;;;;22.42;14.50;;;6.40;1.00;;;;;;5065356;28;20217;-87
2021/12/29 09:45:05;;;;;;;21.55;13.93;;;6.50;1.00;;;;;;5067700;28;20897;-83
2021/12/29 09:47:34;;;;;;;24.23;16.88;;;6.50;1.00;;;;;;5063343;28;20282;-83
2021/12/29 09:50:02;;;;;;;20.38;14.13;;;6.60;1.00;;;;;;5065301;28;20293;-84
2021/12/29 09:52:33;;;;;;;22.55;13.60;;;6.60;1.00;;;;;;5065173;28;20213;-83
2021/12/29 09:55:04;;;;;;;18.83;14.48;;;6.60;1.00;;;;;;5067859;28;20226;-83
2021/12/29 09:57:31;;;;;;;21.08;15.82;;;6.70;1.00;;;;;;5064662;28;21022;-83
2021/12/29 09:59:59;;;;;;;19.98;14.40;;;6.70;1.00;;;;;;5086444;28;20216;-81
2021/12/29 10:02:26;;;;;;;18.95;15.15;;;6.70;1.00;;;;;;5089789;28;20261;-82
2021/12/29 10:04:53;;;;;;;19.90;14.93;;;6.70;1.00;;;;;;5087595;28;20239;-82
2021/12/29 10:07:22;;;;;;;19.70;14.30;;;6.80;1.00;;;;;;5087190;28;20225;-83
2021/12/29 10:09:49;;;;;;;22.50;15.18;;;6.80;1.00;;;;;;5084426;28;20235;-79
2021/12/29 10:12:19;;;;;;;26.17;14.85;;;6.80;1.00;;;;;;5084446;28;20232;-82
2021/12/29 10:14:50;;;;;;;20.70;14.35;;;6.90;1.00;;;;;;5064063;28;21132;-83
2021/12/29 10:17:21;;;;;;;20.33;14.55;;;6.90;1.00;;;;;;5068713;28;20345;-84
2021/12/29 10:19:48;;;;;;;20.33;14.20;;;6.90;1.00;;;;;;5069690;28;20221;-82
2021/12/29 10:22:22;;;;;;;22.63;14.95;;;7.00;1.00;;;;;;5070234;28;20279;-84
2021/12/29 10:24:49;;;;;;;19.27;14.23;;;7.00;1.00;;;;;;5069162;28;20293;-85
2021/12/29 10:27:22;;;;;;;18.55;14.57;;;7.10;1.00;;;;;;5067223;28;20350;-83
2021/12/29 10:29:48;;;;;;;26.10;14.40;;;7.00;1.00;;;;;;5067549;28;20225;-82
2021/12/29 10:32:24;;;;;;;19.43;13.90;;;7.10;1.00;;;;;;5060176;28;20221;-83
2021/12/29 10:34:52;;;;;;;18.83;14.35;;;7.20;1.00;;;;;;5064869;28;21006;-84
2021/12/29 10:37:20;;;;;;;18.58;13.98;;;7.10;1.00;;;;;;5068537;28;22929;-82
2021/12/29 10:39:50;;;;;;;17.90;14.23;;;7.20;1.00;;;;;;5085473;28;20217;-82
2021/12/29 10:42:22;;;;;;;20.08;14.80;;;7.30;1.00;;;;;;5073129;28;20422;-83
2021/12/29 10:44:51;;;;;;;19.15;14.20;;;7.30;1.00;;;;;;5063711;28;21533;-85
2021/12/29 10:47:21;;;;;;;18.30;13.65;;;7.40;1.00;;;;;;5064406;28;21147;-81
2021/12/29 10:49:54;;;;;;;22.10;13.68;;;7.40;1.00;;;;;;5059382;28;20678;-78
2021/12/29 10:52:32;;;;;;;21.55;15.50;;;7.50;1.00;;;;;;5072431;28;20693;-77
2021/12/29 10:54:59;;;;;;;20.20;15.02;;;7.40;1.00;;;;;;5063485;28;20430;-81
2021/12/29 10:57:25;;;;;;;23.33;15.80;;;7.50;1.00;;;;;;5076847;28;20288;-78
2021/12/29 10:59:58;;;;;;;18.80;14.52;;;7.50;1.00;;;;;;5062335;28;20351;-79
2021/12/29 11:02:28;;;;;;;19.67;15.32;;;7.40;1.00;;;;;;5065877;28;20376;-80
2021/12/29 11:05:02;;;;;;;23.88;16.45;;;7.40;1.00;;;;;;5061115;28;20252;-84
2021/12/29 11:07:31;;;;;;;19.65;15.18;;;7.40;1.00;;;;;;5066292;28;20237;-83
2021/12/29 11:10:08;;;;;;;26.15;16.20;;;7.40;1.00;;;;;;5060393;28;20271;-84
2021/12/29 11:12:44;;;;;;;22.65;16.20;;;7.40;1.00;;;;;;5062595;28;20229;-84
2021/12/29 11:15:16;;;;;;;20.50;15.68;;;7.30;1.00;;;;;;5058816;28;20238;-85
2021/12/29 11:17:43;;;;;;;20.70;16.75;;;7.30;1.00;;;;;;5061861;28;20297;-85
2021/12/29 11:20:18;;;;;;;26.33;16.50;;;7.20;1.00;;;;;;5065863;28;20271;-83
2021/12/29 11:22:45;;;;;;;21.60;16.67;;;7.10;1.00;;;;;;5064114;28;20240;-82
2021/12/29 11:25:12;;;;;;;22.88;15.88;;;6.90;1.00;;;;;;5057718;28;20237;-84
2021/12/29 11:27:39;;;;;;;24.08;17.60;;;6.90;1.00;;;;;;5065480;28;20388;-84
2021/12/29 11:30:10;;;;;;;25.23;18.05;;;6.90;1.00;;;;;;5078372;28;20269;-82
2021/12/29 11:32:42;;;;;;;27.75;17.20;;;6.90;1.00;;;;;;5074525;28;21207;-83
2021/12/29 11:35:14;;;;;;;23.88;15.77;;;7.00;1.00;;;;;;5060231;28;21016;-84
2021/12/29 11:37:43;;;;;;;25.75;16.52;;;7.00;1.00;;;;;;5065739;28;20784;-84
2021/12/29 11:40:14;;;;;;;23.15;17.38;;;7.00;1.00;;;;;;5056507;28;20387;-84
2021/12/29 11:42:41;;;;;;;26.55;16.63;;;7.00;1.00;;;;;;5080825;28;20279;-84
2021/12/29 11:45:11;;;;;;;24.80;16.83;;;7.00;1.00;;;;;;5059031;28;20225;-80
2021/12/29 11:47:39;;;;;;;22.45;17.52;;;7.00;1.00;;;;;;5060680;28;20779;-81
2021/12/29 11:50:10;;;;;;;20.73;16.05;;;6.90;1.00;;;;;;5053911;28;20229;-80
2021/12/29 11:53:15;;;;;;;31.40;22.55;;;6.90;1.00;;;;;;5057693;28;21345;-82
2021/12/29 11:55:45;;;;;;;25.98;17.42;;;6.80;1.00;;;;;;5057800;28;20221;-81
2021/12/29 11:58:14;;;;;;;29.52;19.38;;;6.80;1.00;;;;;;5058277;28;20280;-79
2021/12/29 12:00:41;;;;;;;25.48;19.33;;;6.80;1.00;;;;;;5058662;28;20232;-80
2021/12/29 12:03:10;;;;;;;26.73;18.17;;;6.80;1.00;;;;;;5054470;28;20229;-80
2021/12/29 12:05:38;;;;;;;23.30;17.05;;;6.80;1.00;;;;;;5064015;28;20309;-82
2021/12/29 12:08:08;;;;;;;29.20;20.00;;;6.70;1.00;;;;;;5058646;28;20217;-81
2021/12/29 12:10:37;;;;;;;29.65;19.77;;;6.60;1.00;;;;;;5076215;28;20225;-79
2021/12/29 12:13:06;;;;;;;25.67;17.77;;;6.60;1.00;;;;;;5057102;28;20720;-82
2021/12/29 12:15:36;;;;;;;30.15;19.02;;;6.50;1.00;;;;;;5061064;28;20322;-81
2021/12/29 12:18:07;;;;;;;26.60;19.60;;;6.50;1.00;;;;;;5063336;28;20226;-81
2021/12/29 12:20:49;;;;;;;30.00;19.92;;;6.50;1.00;;;;;;5060170;28;20252;-80
2021/12/29 12:23:25;;;;;;;28.02;18.80;;;6.50;1.00;;;;;;5057146;28;20220;-83
2021/12/29 12:25:52;;;;;;;32.05;19.85;;;6.60;1.00;;;;;;5062395;28;20616;-82
2021/12/29 12:28:23;;;;;;;32.08;19.42;;;6.60;1.00;;;;;;5066564;28;20234;-81
2021/12/29 12:30:54;;;;;;;28.08;18.23;;;6.60;1.00;;;;;;5061590;28;20256;-83
2021/12/29 12:33:26;;;;;;;31.08;20.25;;;6.70;1.00;;;;;;5066465;28;20268;-78
2021/12/29 12:35:54;;;;;;;27.55;19.25;;;6.80;1.00;;;;;;5072013;28;20263;-78
2021/12/29 12:38:27;;;;;;;29.73;19.80;;;6.90;1.00;;;;;;5071908;28;20264;-81
2021/12/29 12:41:03;;;;;;;29.45;19.45;;;6.90;1.00;;;;;;5068180;28;20217;-82
2021/12/29 12:43:31;;;;;;;30.48;19.30;;;6.90;1.00;;;;;;5065449;28;20224;-82
2021/12/29 12:45:58;;;;;;;32.55;22.80;;;6.90;1.00;;;;;;5071319;28;20241;-79
2021/12/29 12:48:27;;;;;;;34.58;22.00;;;6.90;1.00;;;;;;5068094;28;20308;-82
2021/12/29 12:50:55;;;;;;;31.38;21.42;;;7.00;1.00;;;;;;5059473;28;20251;-81
2021/12/29 12:53:30;;;;;;;27.40;20.77;;;7.00;1.00;;;;;;5064748;28;20483;-80
2021/12/29 12:55:58;;;;;;;30.63;20.95;;;7.00;1.00;;;;;;5065347;28;20298;-83
2021/12/29 12:58:29;;;;;;;29.60;20.67;;;7.00;1.00;;;;;;5071851;28;20232;-82